Time;durP1;ratioP1;P1;durP2;ratioP2;P2;SDS_P1;SDS_P2;PMS_P1;PMS_P2;Temp;Humidity;BMP_temperature;BMP_pressure;BME280_temperature;BME280_humidity;BME280_pressure;Samples;Min_cycle;Max_cycle;Signal;HPM_P1;HPM_P2
2022/10/01 00:00:19;;;;;;;6.22;5.82;;;12.20;54.70;;;;;;20654;6884;120547;-95
2022/10/01 00:02:44;;;;;;;6.40;5.90;;;12.00;54.90;;;;;;20694;6884;117361;-96
2022/10/01 00:05:10;;;;;;;6.00;5.60;;;11.70;55.60;;;;;;20690;6884;116413;-96
2022/10/01 00:07:36;;;;;;;6.87;6.47;;;11.70;55.60;;;;;;20445;6884;311356;-96
2022/10/01 00:10:01;;;;;;;7.93;7.32;;;12.00;55.80;;;;;;20431;6884;309220;-96
2022/10/01 00:12:28;;;;;;;6.70;6.30;;;12.40;54.60;;;;;;20655;6884;117513;-95
2022/10/01 00:14:53;;;;;;;6.30;5.80;;;12.40;54.50;;;;;;20653;6884;117387;-95
2022/10/01 00:17:19;;;;;;;5.62;5.12;;;12.20;54.90;;;;;;20664;6884;117354;-95
2022/10/01 00:19:44;;;;;;;6.83;6.33;;;12.00;55.20;;;;;;20423;6884;339614;-95
2022/10/01 00:22:10;;;;;;;6.25;5.85;;;12.20;55.00;;;;;;20664;6884;117206;-94
2022/10/01 00:24:36;;;;;;;5.78;5.37;;;12.20;54.80;;;;;;20652;6884;119109;-94
2022/10/01 00:27:01;;;;;;;5.43;5.13;;;12.10;55.00;;;;;;20676;6884;116474;-94
2022/10/01 00:29:27;;;;;;;6.10;5.78;;;12.20;55.60;;;;;;20459;6884;310488;-96
2022/10/01 00:31:53;;;;;;;5.80;5.43;;;12.10;55.50;;;;;;20652;6884;117630;-95
2022/10/01 00:34:19;;;;;;;6.20;5.83;;;12.20;55.20;;;;;;20674;6884;117297;-94
2022/10/01 00:36:44;;;;;;;6.20;5.80;;;12.00;55.40;;;;;;20445;6884;338889;-95
2022/10/01 00:39:10;;;;;;;6.05;5.70;;;12.20;55.20;;;;;;20669;6884;117475;-94
2022/10/01 00:41:36;;;;;;;5.67;5.37;;;12.30;54.90;;;;;;20710;6884;117879;-94
2022/10/01 00:44:02;;;;;;;5.90;5.40;;;11.90;55.20;;;;;;20693;6884;118880;-95
2022/10/01 00:46:27;;;;;;;5.80;5.40;;;11.80;55.10;;;;;;20619;6884;117645;-95
2022/10/01 00:48:59;;;;;;;5.73;5.30;;;11.70;55.40;;;;;;20641;6884;119060;-94
2022/10/01 00:51:21;;;;;;;6.13;5.63;;;11.60;55.60;;;;;;20478;6884;309293;-94
2022/10/01 00:53:47;;;;;;;5.90;5.30;;;11.90;55.60;;;;;;20686;6884;116915;-96
2022/10/01 00:56:13;;;;;;;6.62;6.22;;;11.90;55.20;;;;;;20497;6884;337808;-94
2022/10/01 00:58:38;;;;;;;6.10;5.80;;;12.10;54.80;;;;;;20467;6882;279535;-94
2022/10/01 01:01:04;;;;;;;6.07;5.67;;;12.50;54.10;;;;;;20445;6883;309929;-95
2022/10/01 01:03:30;;;;;;;6.10;5.70;;;12.90;52.90;;;;;;20440;6883;309040;-95
2022/10/01 01:05:56;;;;;;;5.33;5.03;;;12.90;52.80;;;;;;20629;6884;117463;-96
2022/10/01 01:08:21;;;;;;;5.10;4.80;;;12.70;53.00;;;;;;20656;6884;117966;-96
2022/10/01 01:10:48;;;;;;;4.83;4.43;;;12.50;53.70;;;;;;20648;6884;119898;-95
2022/10/01 01:13:32;;;;;;;5.10;4.80;;;12.20;54.30;;;;;;20625;6884;120922;-95
2022/10/01 01:16:11;;;;;;;5.17;4.80;;;12.00;54.90;;;;;;20614;6884;117942;-95
2022/10/01 01:18:57;;;;;;;5.20;4.90;;;11.80;55.20;;;;;;20423;6884;339011;-94
2022/10/01 01:21:38;;;;;;;4.43;4.13;;;12.00;54.80;;;;;;20637;6884;117434;-94
2022/10/01 01:24:31;;;;;;;6.03;5.63;;;12.00;54.50;;;;;;20393;6884;279677;-95
2022/10/01 01:27:16;;;;;;;6.50;6.10;;;12.20;54.30;;;;;;20426;6884;288124;-94
2022/10/01 01:29:56;;;;;;;6.70;6.10;;;12.60;53.80;;;;;;20604;6884;119042;-95
2022/10/01 01:32:24;;;;;;;6.50;6.10;;;12.40;53.70;;;;;;20420;6884;303194;-96
2022/10/01 01:34:50;;;;;;;6.43;6.03;;;12.50;53.90;;;;;;20618;6884;118356;-96
2022/10/01 01:37:16;;;;;;;13.30;12.40;;;12.40;53.90;;;;;;20419;6884;301319;-95
2022/10/01 01:39:41;;;;;;;6.07;5.57;;;12.40;53.80;;;;;;20599;6884;128370;-96
2022/10/01 01:42:07;;;;;;;7.27;6.77;;;12.40;53.90;;;;;;20418;6884;308903;-95
2022/10/01 01:44:36;;;;;;;6.17;5.67;;;12.40;53.80;;;;;;20619;6884;117673;-95
2022/10/01 01:47:00;;;;;;;6.77;6.27;;;12.30;53.90;;;;;;20400;6884;309377;-94
2022/10/01 01:49:24;;;;;;;5.55;5.12;;;12.50;53.90;;;;;;20621;6884;118482;-96
2022/10/01 01:51:50;;;;;;;5.37;4.97;;;12.30;53.70;;;;;;20610;6884;119980;-96
2022/10/01 01:54:15;;;;;;;5.60;5.30;;;12.10;54.20;;;;;;20400;6884;308952;-95
2022/10/01 01:56:41;;;;;;;5.23;4.83;;;12.30;54.40;;;;;;20629;6884;118432;-95
2022/10/01 01:59:07;;;;;;;4.68;4.40;;;12.20;54.30;;;;;;20633;6884;117875;-95
2022/10/01 02:01:33;;;;;;;5.30;4.90;;;12.00;54.50;;;;;;20422;6884;280597;-95
2022/10/01 02:03:58;;;;;;;5.25;4.90;;;12.20;54.30;;;;;;20372;6884;310032;-96
2022/10/01 02:06:27;;;;;;;5.43;4.97;;;12.80;53.20;;;;;;20395;6887;308390;-95
2022/10/01 02:09:07;;;;;;;4.73;4.33;;;12.80;53.10;;;;;;20618;6879;120586;-95
2022/10/01 02:11:32;;;;;;;5.20;4.87;;;12.60;53.10;;;;;;20599;6880;117166;-94
2022/10/01 02:14:01;;;;;;;4.67;4.27;;;12.30;53.60;;;;;;20589;6894;118110;-95
2022/10/01 02:16:29;;;;;;;4.50;4.20;;;12.00;54.10;;;;;;20609;6886;117364;-94
2022/10/01 02:19:04;;;;;;;5.40;4.90;;;11.80;54.60;;;;;;20405;6886;308658;-94
2022/10/01 02:21:41;;;;;;;5.90;5.43;;;11.90;54.60;;;;;;20621;6885;116579;-94
2022/10/01 02:24:06;;;;;;;6.20;5.70;;;11.90;54.60;;;;;;20404;6885;311568;-95
2022/10/01 02:26:32;;;;;;;4.82;4.53;;;12.10;54.50;;;;;;20590;6889;119686;-95
2022/10/01 02:28:57;;;;;;;5.40;5.10;;;12.10;54.40;;;;;;20570;6904;116531;-95
2022/10/01 02:31:23;;;;;;;5.30;5.00;;;11.90;54.80;;;;;;20365;6900;339538;-94
2022/10/01 02:33:48;;;;;;;4.75;4.35;;;12.00;54.30;;;;;;20523;6910;129591;-94
2022/10/01 02:36:14;;;;;;;5.27;4.77;;;12.00;54.20;;;;;;20377;6895;339976;-95
2022/10/01 02:38:40;;;;;;;5.22;4.82;;;12.20;54.00;;;;;;20360;6897;309659;-96
2022/10/01 02:41:05;;;;;;;5.00;4.70;;;12.50;53.30;;;;;;20588;6897;118541;-95
2022/10/01 02:43:37;;;;;;;4.80;4.50;;;12.40;53.30;;;;;;20569;6897;118083;-95
2022/10/01 02:46:06;;;;;;;5.30;4.90;;;12.10;53.70;;;;;;20058;6897;297969;-94
2022/10/01 02:48:31;;;;;;;4.80;4.40;;;12.20;53.80;;;;;;20569;6897;117318;-96
2022/10/01 02:51:00;;;;;;;5.15;4.57;;;12.10;53.80;;;;;;20577;6897;119505;-96
2022/10/01 02:53:29;;;;;;;4.85;4.47;;;12.10;54.00;;;;;;20317;6897;282822;-94
2022/10/01 02:55:55;;;;;;;4.90;4.47;;;12.00;53.90;;;;;;20589;6897;119855;-95
2022/10/01 02:58:20;;;;;;;4.43;4.10;;;12.00;53.80;;;;;;20599;6897;118692;-95
2022/10/01 03:00:46;;;;;;;4.50;4.27;;;11.80;54.20;;;;;;20398;6897;291625;-96
2022/10/01 03:03:12;;;;;;;4.05;3.85;;;12.00;53.80;;;;;;20619;6897;120142;-95
2022/10/01 03:05:37;;;;;;;4.43;4.12;;;12.00;53.80;;;;;;20615;6897;127232;-95
2022/10/01 03:08:03;;;;;;;4.78;4.45;;;11.80;54.10;;;;;;20486;6875;339203;-93
2022/10/01 03:10:29;;;;;;;4.43;4.12;;;12.00;54.00;;;;;;20719;6875;117761;-95
2022/10/01 03:12:55;;;;;;;4.80;4.50;;;11.90;53.80;;;;;;20752;6875;118829;-95
2022/10/01 03:15:20;;;;;;;5.40;5.10;;;11.70;54.10;;;;;;20515;6875;279808;-96
2022/10/01 03:17:45;;;;;;;4.57;4.27;;;11.90;53.90;;;;;;20713;6875;119066;-95
2022/10/01 03:20:11;;;;;;;4.33;4.00;;;11.90;53.80;;;;;;20715;6873;70771;-96
2022/10/01 03:22:36;;;;;;;4.43;4.13;;;11.70;54.10;;;;;;20718;6874;116085;-95
2022/10/01 03:25:02;;;;;;;4.60;4.20;;;11.50;54.50;;;;;;20731;6874;67943;-95
2022/10/01 03:27:28;;;;;;;3.87;3.57;;;11.40;54.90;;;;;;20735;6875;67895;-95
2022/10/01 03:29:53;;;;;;;4.85;4.45;;;11.30;55.20;;;;;;20649;6875;127358;-94
2022/10/01 03:32:20;;;;;;;4.55;4.25;;;11.50;54.80;;;;;;20444;6875;278391;-95
2022/10/01 03:34:46;;;;;;;3.90;3.60;;;11.50;54.70;;;;;;20665;6875;117488;-95
2022/10/01 03:37:13;;;;;;;3.93;3.73;;;11.80;54.00;;;;;;20421;6875;327593;-94
2022/10/01 03:39:39;;;;;;;4.15;3.92;;;11.80;54.00;;;;;;20409;6875;312742;-96
2022/10/01 03:42:04;;;;;;;3.70;3.50;;;12.10;53.10;;;;;;20451;6875;279943;-95
2022/10/01 03:44:30;;;;;;;4.03;3.72;;;12.40;52.40;;;;;;20449;6875;310445;-96
2022/10/01 03:47:04;;;;;;;4.33;4.13;;;12.60;51.90;;;;;;20390;6875;307592;-96
2022/10/01 03:49:34;;;;;;;4.12;3.83;;;12.80;51.70;;;;;;20441;6875;286215;-96
2022/10/01 03:51:57;;;;;;;4.20;4.00;;;12.90;50.90;;;;;;20416;6875;309942;-96
2022/10/01 03:54:32;;;;;;;;;;;;;;;;;;;;;
2022/10/01 03:56:48;;;;;;;3.87;3.58;;;12.70;51.10;;;;;;20266;6769;343959;-87
2022/10/01 03:59:26;;;;;;;3.77;3.57;;;12.50;51.60;;;;;;20601;6838;119557;-87
2022/10/01 04:02:00;;;;;;;4.30;4.00;;;12.40;51.50;;;;;;20502;6775;311781;-87
2022/10/01 04:04:37;;;;;;;4.03;3.77;;;12.50;51.70;;;;;;20769;6775;118795;-87
2022/10/01 04:07:15;;;;;;;3.83;3.63;;;12.30;51.90;;;;;;20531;6775;316197;-87
2022/10/01 04:09:49;;;;;;;4.10;3.70;;;12.40;52.00;;;;;;20524;6775;280566;-87
2022/10/01 04:12:25;;;;;;;3.87;3.67;;;12.60;51.60;;;;;;20481;6775;310923;-87
2022/10/01 04:15:00;;;;;;;3.80;3.50;;;12.80;51.30;;;;;;20546;6775;311837;-87
2022/10/01 04:17:37;;;;;;;3.70;3.40;;;13.10;50.70;;;;;;20543;6775;280447;-87
2022/10/01 04:20:16;;;;;;;3.00;2.90;;;13.10;50.70;;;;;;20676;6796;118663;-89
2022/10/01 04:22:53;;;;;;;4.40;3.13;;;12.40;51.70;;;;;;20693;6770;118388;-91
2022/10/01 04:25:29;;;;;;;3.08;2.97;;;12.40;51.70;;;;;;20541;6776;277279;-87
2022/10/01 04:28:08;;;;;;;3.37;3.17;;;12.40;51.60;;;;;;20520;6777;307543;-88
2022/10/01 04:30:44;;;;;;;3.50;3.30;;;12.70;51.10;;;;;;20590;6762;305021;-89
2022/10/01 04:33:20;;;;;;;3.50;3.30;;;12.90;50.70;;;;;;20464;6762;308087;-88
2022/10/01 04:35:55;;;;;;;4.00;3.33;;;13.00;50.40;;;;;;20552;6784;335843;-88
2022/10/01 04:38:31;;;;;;;4.30;3.10;;;13.10;50.10;;;;;;20795;6779;118243;-88
2022/10/01 04:41:08;;;;;;;2.80;2.70;;;12.80;50.50;;;;;;20742;6836;117001;-87
2022/10/01 04:43:51;;;;;;;2.85;2.75;;;12.40;51.30;;;;;;20347;6779;283051;-87
2022/10/01 04:46:19;;;;;;;2.90;2.70;;;12.40;51.50;;;;;;20719;6788;117370;-88
2022/10/01 04:48:55;;;;;;;2.57;2.40;;;12.20;51.60;;;;;;20758;6781;117332;-87
2022/10/01 04:51:30;;;;;;;3.00;2.70;;;12.00;52.20;;;;;;20481;6792;302468;-88
2022/10/01 04:54:06;;;;;;;2.87;2.67;;;12.10;52.10;;;;;;20331;6835;313393;-89
2022/10/01 04:56:42;;;;;;;2.80;2.70;;;12.40;51.60;;;;;;20576;6764;279591;-87
2022/10/01 04:59:18;;;;;;;2.72;2.60;;;12.70;51.30;;;;;;20571;6764;338838;-87
2022/10/01 05:01:53;;;;;;;2.50;2.40;;;12.90;50.60;;;;;;20538;6764;306743;-87
2022/10/01 05:04:28;;;;;;;2.53;2.37;;;13.00;50.80;;;;;;20538;6779;305431;-87
2022/10/01 05:07:05;;;;;;;2.43;2.33;;;13.10;49.90;;;;;;20699;6776;117842;-88
2022/10/01 05:09:42;;;;;;;2.57;2.47;;;12.80;50.30;;;;;;20537;6776;279564;-88
2022/10/01 05:12:18;;;;;;;2.37;2.17;;;12.80;50.60;;;;;;20733;6776;117719;-86
2022/10/01 05:14:53;;;;;;;2.40;2.30;;;12.60;50.90;;;;;;20466;6793;309416;-86
2022/10/01 05:17:32;;;;;;;2.23;2.13;;;12.60;51.10;;;;;;20600;6793;120769;-88
2022/10/01 05:20:05;;;;;;;2.07;1.90;;;12.60;51.10;;;;;;20565;6810;118007;-87
2022/10/01 05:22:41;;;;;;;1.93;1.83;;;12.40;51.60;;;;;;20549;6811;119573;-87
2022/10/01 05:25:17;;;;;;;2.40;2.20;;;12.20;52.10;;;;;;20202;6801;310973;-86
2022/10/01 05:27:52;;;;;;;2.47;2.37;;;12.30;51.90;;;;;;20353;6802;310168;-86
2022/10/01 05:30:28;;;;;;;2.30;2.20;;;12.70;51.30;;;;;;20452;6793;306647;-88
2022/10/01 05:33:03;;;;;;;2.05;1.95;;;13.00;50.30;;;;;;20398;6788;314401;-86
2022/10/01 05:35:39;;;;;;;1.73;1.53;;;13.20;49.20;;;;;;20749;6770;118721;-86
2022/10/01 05:38:15;;;;;;;2.03;1.50;;;13.10;49.70;;;;;;20680;6769;117452;-87
2022/10/01 05:40:50;;;;;;;1.67;1.57;;;12.70;50.20;;;;;;20698;6779;118353;-87
2022/10/01 05:43:26;;;;;;;1.65;1.58;;;12.50;50.90;;;;;;20355;6785;343748;-87
2022/10/01 05:46:01;;;;;;;1.50;1.50;;;12.60;50.50;;;;;;20771;6769;118294;-86
2022/10/01 05:48:37;;;;;;;2.20;2.10;;;12.60;50.60;;;;;;20574;6770;307731;-87
2022/10/01 05:51:17;;;;;;;1.80;1.70;;;12.80;50.10;;;;;;20784;6770;118875;-88
2022/10/01 05:54:01;;;;;;;2.10;1.80;;;12.80;50.30;;;;;;20284;6759;336162;-87
2022/10/01 05:56:33;;;;;;;1.80;1.70;;;12.90;49.70;;;;;;20725;6785;117198;-87
2022/10/01 05:59:10;;;;;;;2.08;1.90;;;12.90;50.00;;;;;;20572;6787;309349;-89
2022/10/01 06:01:45;;;;;;;1.67;1.57;;;13.00;50.10;;;;;;20753;6769;121616;-88
2022/10/01 06:04:21;;;;;;;1.90;1.80;;;12.90;50.00;;;;;;20615;6755;310330;-88
2022/10/01 06:06:59;;;;;;;2.47;1.60;;;13.00;49.80;;;;;;20830;6755;119035;-88
2022/10/01 06:09:34;;;;;;;1.70;1.70;;;13.00;49.80;;;;;;20827;6755;124847;-89
2022/10/01 06:12:20;;;;;;;;;;;;;;;;;;;;;
2022/10/01 06:14:46;;;;;;;1.73;1.67;;;12.80;49.90;;;;;;20570;6769;281099;-88
2022/10/01 06:17:22;;;;;;;1.73;1.53;;;12.80;49.90;;;;;;20743;6769;116954;-87
2022/10/01 06:19:57;;;;;;;2.00;1.90;;;12.80;50.00;;;;;;20470;6800;343450;-87
2022/10/01 06:22:33;;;;;;;2.47;1.90;;;13.00;50.40;;;;;;20281;6845;300848;-87
2022/10/01 06:25:09;;;;;;;2.60;2.17;;;13.30;50.30;;;;;;20509;6780;307462;-87
2022/10/01 06:27:44;;;;;;;6.57;6.10;;;13.60;49.50;;;;;;20393;6785;288970;-91
2022/10/01 06:30:20;;;;;;;6.40;5.93;;;13.80;49.60;;;;;;20476;6801;312413;-89
2022/10/01 06:33:05;;;;;;;3.10;2.90;;;14.00;49.10;;;;;;20364;6801;312090;-90
2022/10/01 06:35:41;;;;;;;10.23;9.35;;;14.10;49.10;;;;;;20486;6845;278072;-89
2022/10/01 06:38:16;;;;;;;4.10;3.80;;;14.10;49.40;;;;;;20535;6764;309811;-88
2022/10/01 06:40:55;;;;;;;2.92;2.30;;;14.20;49.40;;;;;;20543;6766;308659;-88
2022/10/01 06:43:31;;;;;;;1.83;1.73;;;14.20;49.40;;;;;;20511;6859;118246;-87
2022/10/01 06:46:08;;;;;;;3.10;2.28;;;13.90;49.80;;;;;;20571;6805;281588;-88
2022/10/01 06:49:19;;;;;;;;;;;;;;;;;;;;;
2022/10/01 06:52:47;;;;;;;2.30;2.20;;;13.60;51.10;;;;;;20339;6844;315822;-88
2022/10/01 06:53:56;;;;;;;2.00;1.90;;;13.60;51.60;;;;;;20574;6760;117322;-87
2022/10/01 06:56:32;;;;;;;2.67;2.47;;;13.40;51.60;;;;;;20644;6772;117121;-90
2022/10/01 06:59:07;;;;;;;4.63;4.23;;;13.10;52.10;;;;;;20731;6816;117599;-88
2022/10/01 07:01:55;;;;;;;;;;;;;;;;;;;;;
2022/10/01 07:05:07;;;;;;;;;;;;;;;;;;;;;
2022/10/01 07:07:23;;;;;;;4.35;4.05;;;12.60;53.40;;;;;;20377;6828;332901;-88
2022/10/01 07:09:34;;;;;;;3.37;3.10;;;12.90;53.40;;;;;;20685;6779;117785;-86
2022/10/01 07:12:10;;;;;;;2.70;2.60;;;12.80;53.20;;;;;;20715;6775;118091;-88
2022/10/01 07:14:47;;;;;;;3.28;3.08;;;12.70;53.40;;;;;;20540;6832;307416;-89
2022/10/01 07:17:23;;;;;;;3.55;3.35;;;13.30;53.30;;;;;;20421;6774;308176;-89
2022/10/01 07:20:09;;;;;;;;;;;;;;;;;;;;;
2022/10/01 07:22:35;;;;;;;2.97;2.17;;;13.30;53.10;;;;;;20230;6789;279938;-88
2022/10/01 07:25:11;;;;;;;2.22;2.12;;;13.40;52.40;;;;;;20514;6789;308943;-89
2022/10/01 07:27:49;;;;;;;2.07;1.80;;;13.70;51.70;;;;;;20318;6770;278509;-88
2022/10/01 07:30:23;;;;;;;2.90;1.90;;;13.90;50.80;;;;;;20524;6788;287530;-88
2022/10/01 07:32:59;;;;;;;2.90;2.15;;;14.10;49.50;;;;;;20318;6773;340732;-88
2022/10/01 07:35:35;;;;;;;1.30;1.30;;;14.20;49.80;;;;;;20493;6758;67992;-88
2022/10/01 07:38:10;;;;;;;1.80;1.40;;;14.00;50.10;;;;;;20505;6758;278414;-89
2022/10/01 07:40:49;;;;;;;1.50;1.40;;;14.00;49.60;;;;;;20689;6790;122255;-88
2022/10/01 07:43:24;;;;;;;1.85;1.75;;;13.80;49.90;;;;;;20214;6808;340425;-88
2022/10/01 07:46:10;;;;;;;;;;;;;;;;;;;;;
2022/10/01 07:48:36;;;;;;;1.92;1.80;;;13.90;50.00;;;;;;20481;6805;310579;-88
2022/10/01 07:51:12;;;;;;;1.33;1.30;;;13.90;50.00;;;;;;20761;6774;116455;-90
2022/10/01 07:53:49;;;;;;;8.17;2.63;;;13.80;50.10;;;;;;20669;6761;120211;-88
2022/10/01 07:56:25;;;;;;;1.67;1.58;;;13.50;50.60;;;;;;20508;6761;306732;-89
2022/10/01 07:59:00;;;;;;;1.42;1.35;;;13.70;50.10;;;;;;20591;6776;306045;-88
2022/10/01 08:01:36;;;;;;;2.60;1.63;;;14.00;48.50;;;;;;20595;6776;278113;-88
2022/10/01 08:07:17;;;;;;;;;;;;;;;;;;;;;
2022/10/01 08:09:42;;;;;;;1.60;1.50;;;14.20;48.50;;;;;;20617;6825;291557;-88
2022/10/01 08:12:18;;;;;;;2.17;1.47;;;14.20;48.40;;;;;;20328;6784;311472;-88
2022/10/01 08:15:04;;;;;;;;;;;;;;;;;;;;;
2022/10/01 08:17:30;;;;;;;1.40;1.30;;;14.30;48.60;;;;;;20571;6770;336440;-88
2022/10/01 08:20:09;;;;;;;1.60;1.50;;;14.30;49.00;;;;;;20801;6832;115625;-88
2022/10/01 08:22:45;;;;;;;1.48;1.37;;;14.10;49.30;;;;;;20149;6784;323005;-88
2022/10/01 08:25:25;;;;;;;2.10;1.93;;;14.10;49.40;;;;;;20810;6776;67310;-88
2022/10/01 08:28:00;;;;;;;1.63;1.53;;;14.00;49.60;;;;;;20588;6781;306416;-89
2022/10/01 08:30:36;;;;;;;2.60;2.50;;;14.10;49.90;;;;;;20428;6766;116453;-90
2022/10/01 08:33:12;;;;;;;1.73;1.20;;;14.00;50.00;;;;;;20682;6784;116629;-91
2022/10/01 08:36:00;;;;;;;2.90;2.70;;;13.70;50.30;;;;;;20489;6765;334861;-87
2022/10/01 08:39:32;;;;;;;2.40;2.30;;;13.90;50.70;;;;;;20562;6777;68599;-95
2022/10/01 08:41:09;;;;;;;2.63;2.53;;;13.80;50.50;;;;;;20635;6762;119328;-88
2022/10/01 08:43:58;;;;;;;1.20;1.20;;;13.60;50.90;;;;;;20669;6767;121974;-94
2022/10/01 08:46:33;;;;;;;89.73;13.73;;;13.40;51.10;;;;;;20788;6776;124801;-88
2022/10/01 08:49:31;;;;;;;81.83;13.47;;;13.30;51.50;;;;;;19829;7172;73021;-87
2022/10/01 08:52:06;;;;;;;37.38;7.50;;;13.20;51.90;;;;;;20539;6761;338368;-87
2022/10/01 08:54:42;;;;;;;2.30;2.20;;;13.50;52.30;;;;;;20375;6781;70323;-88
2022/10/01 08:57:18;;;;;;;3.17;2.77;;;13.60;52.10;;;;;;20841;6761;116021;-87
2022/10/01 08:59:54;;;;;;;382.95;56.53;;;13.50;52.40;;;;;;20617;6761;337786;-87
2022/10/01 09:05:15;;;;;;;455.20;56.97;;;13.70;52.40;;;;;;20579;6776;116815;-87
2022/10/01 09:08:08;;;;;;;2.93;2.67;;;13.60;52.60;;;;;;20820;6761;116679;-88
2022/10/01 09:10:46;;;;;;;7.57;2.20;;;13.50;52.90;;;;;;20901;6761;116846;-87
2022/10/01 09:13:42;;;;;;;90.93;14.03;;;13.40;53.20;;;;;;20773;6761;116985;-88
2022/10/01 09:16:34;;;;;;;10.43;5.57;;;13.40;53.40;;;;;;20842;6776;121824;-88
2022/10/01 09:19:32;;;;;;;21.60;6.70;;;13.30;53.50;;;;;;20420;6776;278514;-88
2022/10/01 09:22:47;;;;;;;;;;;;;;;;;;;;;
2022/10/01 09:25:16;;;;;;;17.23;4.87;;;13.90;53.10;;;;;;20580;6765;309188;-89
2022/10/01 09:28:22;;;;;;;2.43;2.23;;;14.20;52.70;;;;;;20522;6765;120225;-95
2022/10/01 09:30:57;;;;;;;1.93;1.83;;;14.20;52.70;;;;;;20839;6776;116511;-89
2022/10/01 09:33:32;;;;;;;6.87;3.20;;;14.10;53.20;;;;;;20699;6769;68268;-85
2022/10/01 09:36:33;;;;;;;5.07;4.78;;;14.00;53.50;;;;;;20570;6791;297345;-89
2022/10/01 09:39:10;;;;;;;6.30;5.90;;;14.30;54.60;;;;;;20789;6774;121319;-88
2022/10/01 09:41:47;;;;;;;3.37;3.17;;;14.40;54.00;;;;;;20703;6833;119603;-89
2022/10/01 09:44:29;;;;;;;5.10;4.80;;;14.60;54.10;;;;;;20650;6812;315413;-88
2022/10/01 09:47:18;;;;;;;3.57;3.33;;;14.60;54.00;;;;;;20609;6771;308021;-88
2022/10/01 09:49:53;;;;;;;4.40;4.10;;;15.00;53.10;;;;;;20841;6756;116897;-88
2022/10/01 09:52:32;;;;;;;5.40;5.00;;;14.70;53.30;;;;;;20757;6771;117476;-89
2022/10/01 09:55:23;;;;;;;3.37;3.07;;;14.70;52.90;;;;;;20833;6750;117220;-91
2022/10/01 09:58:02;;;;;;;4.30;3.90;;;14.50;53.20;;;;;;20787;6777;119084;-90
2022/10/01 10:00:38;;;;;;;6.60;5.80;;;14.30;53.40;;;;;;20530;6824;277591;-87
2022/10/01 10:03:24;;;;;;;3.58;3.28;;;14.60;53.80;;;;;;20447;6773;279774;-88
2022/10/01 10:06:00;;;;;;;4.87;4.50;;;15.00;52.60;;;;;;20558;6763;306953;-87
2022/10/01 10:08:36;;;;;;;2.73;2.63;;;15.40;52.30;;;;;;20592;6763;311157;-88
2022/10/01 10:11:11;;;;;;;4.15;3.85;;;15.70;51.30;;;;;;20584;6763;336104;-88
2022/10/01 10:13:50;;;;;;;2.33;2.23;;;15.80;50.90;;;;;;20619;6763;117612;-87
2022/10/01 10:16:33;;;;;;;3.30;3.10;;;15.60;51.20;;;;;;20748;6778;117282;-88
2022/10/01 10:19:23;;;;;;;4.43;4.13;;;15.10;51.80;;;;;;20538;6777;318321;-87
2022/10/01 10:21:59;;;;;;;2.70;2.60;;;15.20;52.70;;;;;;20651;6793;118251;-88
2022/10/01 10:24:32;;;;;;;1.53;1.43;;;15.00;52.60;;;;;;20735;6782;123486;-86
2022/10/01 10:27:19;;;;;;;2.58;2.37;;;14.70;53.00;;;;;;20484;6797;308505;-87
2022/10/01 10:30:13;;;;;;;11.47;10.57;;;14.90;53.50;;;;;;19589;7131;122461;-88
2022/10/01 10:32:51;;;;;;;2.80;2.70;;;14.80;53.50;;;;;;20646;6780;121422;-88
2022/10/01 10:35:27;;;;;;;2.00;1.90;;;14.60;53.90;;;;;;20786;6767;117413;-87
2022/10/01 10:38:04;;;;;;;5.85;5.45;;;14.30;54.00;;;;;;20593;6756;310095;-87
2022/10/01 10:40:50;;;;;;;;;;;;;;;;;;;;;
2022/10/01 10:43:29;;;;;;;;;;;;;;;;;;;;;
2022/10/01 10:45:58;;;;;;;2.03;1.83;;;15.10;53.70;;;;;;20463;6753;279202;-87
2022/10/01 10:48:34;;;;;;;1.97;1.87;;;15.30;53.40;;;;;;20522;6782;278894;-88
2022/10/01 10:51:10;;;;;;;4.53;4.23;;;15.30;52.30;;;;;;20720;6783;117246;-88
2022/10/01 10:53:46;;;;;;;2.75;2.65;;;15.10;53.30;;;;;;20370;6764;313481;-87
2022/10/01 10:56:22;;;;;;;3.03;2.83;;;15.00;53.60;;;;;;20430;6768;307915;-88
2022/10/01 10:58:59;;;;;;;5.40;5.10;;;15.20;53.60;;;;;;20795;6824;117728;-95
2022/10/01 11:01:36;;;;;;;5.20;4.90;;;15.10;54.30;;;;;;20589;6779;311863;-87
2022/10/01 11:04:18;;;;;;;4.97;4.67;;;15.10;54.30;;;;;;20783;6764;117568;-89
2022/10/01 11:06:54;;;;;;;4.60;4.20;;;14.90;54.30;;;;;;20791;6768;117716;-87
2022/10/01 11:09:57;;;;;;;7.33;6.93;;;14.70;54.90;;;;;;20738;6753;116966;-88
2022/10/01 11:12:36;;;;;;;5.23;4.93;;;14.60;55.30;;;;;;20444;6792;283133;-89
2022/10/01 11:15:14;;;;;;;5.03;4.73;;;14.90;55.50;;;;;;20798;6768;117653;-89
2022/10/01 11:18:09;;;;;;;4.18;3.97;;;14.90;55.20;;;;;;20546;6768;308227;-90
2022/10/01 11:20:59;;;;;;;;;;;;;;;;;;;;;
2022/10/01 11:23:46;;;;;;;;;;;;;;;;;;;;;
2022/10/01 12:33:59;;;;;;;1.10;1.10;;;16.70;51.50;;;;;;20858;6529;130650;-86
2022/10/01 12:36:38;;;;;;;1.10;1.10;;;16.40;52.00;;;;;;20404;6873;310872;-87
2022/10/01 12:39:17;;;;;;;1.00;1.00;;;16.30;52.50;;;;;;20454;6858;308627;-86
2022/10/01 12:41:46;;;;;;;1.03;1.03;;;16.40;52.20;;;;;;20617;6861;117666;-86
2022/10/01 12:44:22;;;;;;;0.67;0.67;;;16.20;52.40;;;;;;20662;6856;117835;-87
2022/10/01 12:46:48;;;;;;;1.57;1.07;;;15.50;53.80;;;;;;20683;6856;118044;-87
2022/10/01 12:49:21;;;;;;;0.90;0.90;;;15.50;53.60;;;;;;20633;6856;117462;-87
2022/10/01 12:51:51;;;;;;;1.07;1.00;;;15.30;54.20;;;;;;20644;6856;118138;-90
2022/10/01 12:54:29;;;;;;;0.90;0.90;;;15.10;54.60;;;;;;19953;6856;117560;-86
2022/10/01 12:56:57;;;;;;;1.07;1.07;;;15.10;55.10;;;;;;20677;6856;117500;-87
2022/10/01 12:59:37;;;;;;;0.88;0.88;;;15.10;55.40;;;;;;20441;6856;278644;-87
2022/10/01 13:02:06;;;;;;;1.10;0.90;;;15.40;55.70;;;;;;20397;6856;285530;-86
2022/10/01 13:04:44;;;;;;;1.00;1.00;;;15.80;55.20;;;;;;20423;6856;281493;-86
2022/10/01 13:07:23;;;;;;;1.03;1.03;;;16.20;54.40;;;;;;20643;6856;117950;-87
2022/10/01 13:09:59;;;;;;;0.70;0.70;;;16.20;54.20;;;;;;20650;6856;118490;-86
2022/10/01 13:12:26;;;;;;;1.03;0.93;;;15.90;54.40;;;;;;20627;6876;123545;-87
2022/10/01 13:14:52;;;;;;;0.85;0.80;;;15.80;54.70;;;;;;20084;6866;312640;-88
2022/10/01 13:17:23;;;;;;;0.77;0.77;;;15.90;54.50;;;;;;20640;6873;119529;-86
2022/10/01 13:19:52;;;;;;;0.90;0.90;;;15.90;54.30;;;;;;20441;6858;279300;-85
2022/10/01 13:22:37;;;;;;;1.95;1.85;;;16.10;54.70;;;;;;20388;6877;340392;-87
2022/10/01 13:25:08;;;;;;;1.20;1.20;;;16.40;53.60;;;;;;20663;6860;123656;-86
2022/10/01 13:27:37;;;;;;;0.70;0.70;;;16.30;53.60;;;;;;19801;6860;282980;-87
2022/10/01 13:30:20;;;;;;;0.63;0.63;;;16.40;53.50;;;;;;20428;6860;278976;-86
2022/10/01 13:32:56;;;;;;;3.70;0.70;;;16.70;53.20;;;;;;20660;6860;117395;-86
2022/10/01 13:35:26;;;;;;;0.60;0.60;;;16.60;52.90;;;;;;20649;6860;117588;-87
2022/10/01 13:37:53;;;;;;;0.70;0.70;;;16.30;53.40;;;;;;20443;6860;295423;-86
2022/10/01 13:40:32;;;;;;;0.60;0.60;;;16.30;53.30;;;;;;20626;6877;122104;-86
2022/10/01 13:43:19;;;;;;;0.93;0.77;;;16.30;53.40;;;;;;20428;6865;338687;-87
2022/10/01 13:45:45;;;;;;;0.50;0.50;;;16.40;53.60;;;;;;20609;6873;143062;-87
2022/10/01 13:48:10;;;;;;;0.60;0.60;;;16.30;53.30;;;;;;20595;6877;118029;-87
2022/10/01 13:50:47;;;;;;;0.40;0.40;;;16.00;53.60;;;;;;20637;6875;117416;-86
2022/10/01 13:53:18;;;;;;;0.50;0.50;;;15.90;54.10;;;;;;20157;6875;278872;-87
2022/10/01 13:55:45;;;;;;;0.50;0.50;;;16.00;54.10;;;;;;20579;6875;118599;-87
2022/10/01 13:58:20;;;;;;;0.52;0.52;;;16.10;53.90;;;;;;20410;6872;309610;-86
2022/10/01 14:00:52;;;;;;;0.60;0.60;;;16.20;53.90;;;;;;20420;6874;312431;-87
2022/10/01 14:03:46;;;;;;;0.60;0.60;;;16.50;53.50;;;;;;20643;6874;117947;-86
2022/10/01 14:06:45;;;;;;;0.53;0.53;;;16.40;53.40;;;;;;20463;6859;282001;-87
2022/10/01 14:09:17;;;;;;;0.50;0.50;;;16.50;53.30;;;;;;20403;6873;291663;-87
2022/10/01 14:17:21;;;;;;;0.50;0.50;;;16.50;54.00;;;;;;20423;6873;309364;-87
2022/10/01 14:19:49;;;;;;;0.60;0.60;;;16.50;53.80;;;;;;20390;6874;338412;-87
2022/10/01 14:22:20;;;;;;;0.60;0.60;;;16.70;53.60;;;;;;20460;6859;307845;-87
2022/10/01 14:25:21;;;;;;;0.50;0.50;;;17.00;52.90;;;;;;20509;6679;309043;-96
2022/10/01 14:28:17;;;;;;;0.40;0.40;;;17.20;52.40;;;;;;20223;6815;306638;-75
2022/10/01 14:31:16;;;;;;;0.40;0.40;;;17.40;52.00;;;;;;20591;6758;309847;-75
2022/10/01 14:34:09;;;;;;;0.40;0.40;;;17.50;51.60;;;;;;20788;6762;119473;-76
2022/10/01 14:36:44;;;;;;;0.60;0.53;;;17.10;51.70;;;;;;19879;6874;313944;-78
2022/10/01 14:39:26;;;;;;;0.60;0.60;;;17.10;52.10;;;;;;20734;6777;118846;-75
2022/10/01 14:42:02;;;;;;;0.40;0.40;;;16.90;52.30;;;;;;20744;6776;120415;-80
2022/10/01 14:44:40;;;;;;;0.53;0.53;;;16.60;52.70;;;;;;20771;6772;117549;-77
2022/10/01 14:47:19;;;;;;;0.90;0.60;;;16.30;53.20;;;;;;20492;6818;312090;-76
2022/10/01 14:49:55;;;;;;;0.40;0.40;;;16.40;53.30;;;;;;20549;6817;310296;-77